sensor_id;sensor_type;location;lat;lon;timestamp;temperature;humidity
75838;SHT30;64480;52.040;113.502;2023-02-28T00:02:56;-6.67;46.08
75838;SHT30;64480;52.040;113.502;2023-02-28T00:06:18;-6.06;44.02
75838;SHT30;64480;52.040;113.502;2023-02-28T00:09:45;-5.40;42.83
75838;SHT30;64480;52.040;113.502;2023-02-28T00:13:06;-4.45;40.57
75838;SHT30;64480;52.040;113.502;2023-02-28T00:16:24;-3.88;38.73
75838;SHT30;64480;52.040;113.502;2023-02-28T00:19:44;-3.71;37.91
75838;SHT30;64480;52.040;113.502;2023-02-28T00:23:09;-3.48;37.70
75838;SHT30;64480;52.040;113.502;2023-02-28T00:26:34;-3.19;37.09
75838;SHT30;64480;52.040;113.502;2023-02-28T00:30:01;-3.14;36.17
75838;SHT30;64480;52.040;113.502;2023-02-28T00:33:33;-2.91;36.33
75838;SHT30;64480;52.040;113.502;2023-02-28T00:37:11;-2.66;36.66
75838;SHT30;64480;52.040;113.502;2023-02-28T00:40:53;-3.34;37.11
75838;SHT30;64480;52.040;113.502;2023-02-28T00:44:43;-3.83;38.98
75838;SHT30;64480;52.040;113.502;2023-02-28T00:48:05;-4.59;38.99
75838;SHT30;64480;52.040;113.502;2023-02-28T00:51:27;-5.22;40.93
75838;SHT30;64480;52.040;113.502;2023-02-28T00:54:48;-5.84;42.89
75838;SHT30;64480;52.040;113.502;2023-02-28T00:58:07;-6.06;44.54
75838;SHT30;64480;52.040;113.502;2023-02-28T01:01:27;-6.20;45.23
75838;SHT30;64480;52.040;113.502;2023-02-28T01:04:45;-6.48;44.94
75838;SHT30;64480;52.040;113.502;2023-02-28T01:08:05;-6.67;45.98
75838;SHT30;64480;52.040;113.502;2023-02-28T01:11:23;-6.63;46.44
75838;SHT30;64480;52.040;113.502;2023-02-28T01:14:44;-6.56;46.24
75838;SHT30;64480;52.040;113.502;2023-02-28T01:18:15;-6.40;45.63
75838;SHT30;64480;52.040;113.502;2023-02-28T01:21:35;-6.46;45.70
75838;SHT30;64480;52.040;113.502;2023-02-28T01:24:52;-6.29;45.97
75838;SHT30;64480;52.040;113.502;2023-02-28T01:28:09;-6.34;45.77
75838;SHT30;64480;52.040;113.502;2023-02-28T01:31:29;-6.34;45.52
75838;SHT30;64480;52.040;113.502;2023-02-28T01:34:48;-6.23;46.04
75838;SHT30;64480;52.040;113.502;2023-02-28T01:38:06;-6.23;45.58
75838;SHT30;64480;52.040;113.502;2023-02-28T01:41:29;-6.12;45.42
75838;SHT30;64480;52.040;113.502;2023-02-28T01:48:31;-5.92;44.97
75838;SHT30;64480;52.040;113.502;2023-02-28T01:51:54;-5.77;44.77
75838;SHT30;64480;52.040;113.502;2023-02-28T01:55:15;-5.53;44.94
75838;SHT30;64480;52.040;113.502;2023-02-28T01:58:50;-5.39;43.81
75838;SHT30;64480;52.040;113.502;2023-02-28T02:02:25;-5.33;44.55
75838;SHT30;64480;52.040;113.502;2023-02-28T02:05:43;-5.39;43.18
75838;SHT30;64480;52.040;113.502;2023-02-28T02:09:03;-5.25;44.62
75838;SHT30;64480;52.040;113.502;2023-02-28T02:20:16;-4.76;44.12
75838;SHT30;64480;52.040;113.502;2023-02-28T02:28:18;-4.70;43.86
75838;SHT30;64480;52.040;113.502;2023-02-28T02:36:24;-4.87;43.77
75838;SHT30;64480;52.040;113.502;2023-02-28T02:40:15;-4.91;43.73
75838;SHT30;64480;52.040;113.502;2023-02-28T02:44:19;-4.90;44.48
75838;SHT30;64480;52.040;113.502;2023-02-28T02:48:11;-4.79;43.85
75838;SHT30;64480;52.040;113.502;2023-02-28T02:52:08;-4.70;43.37
75838;SHT30;64480;52.040;113.502;2023-02-28T02:56:07;-4.63;44.23
75838;SHT30;64480;52.040;113.502;2023-02-28T03:00:22;-4.39;43.33
75838;SHT30;64480;52.040;113.502;2023-02-28T03:23:18;-3.08;38.96
75838;SHT30;64480;52.040;113.502;2023-02-28T03:35:18;-3.08;37.48
75838;SHT30;64480;52.040;113.502;2023-02-28T04:37:48;-4.59;41.23
75838;SHT30;64480;52.040;113.502;2023-02-28T05:31:47;-2.87;35.38
75838;SHT30;64480;52.040;113.502;2023-02-28T05:40:02;-3.14;33.38
75838;SHT30;64480;52.040;113.502;2023-02-28T06:58:38;-2.40;34.55
75838;SHT30;64480;52.040;113.502;2023-02-28T07:43:50;-3.67;37.71
75838;SHT30;64480;52.040;113.502;2023-02-28T10:04:33;-6.54;62.89
75838;SHT30;64480;52.040;113.502;2023-02-28T10:08:40;-6.56;62.99
75838;SHT30;64480;52.040;113.502;2023-02-28T10:12:46;-6.63;62.83
75838;SHT30;64480;52.040;113.502;2023-02-28T10:38:19;-6.28;58.20
75838;SHT30;64480;52.040;113.502;2023-02-28T10:42:31;-6.34;59.95
75838;SHT30;64480;52.040;113.502;2023-02-28T10:46:33;-6.48;60.69
75838;SHT30;64480;52.040;113.502;2023-02-28T10:54:42;-6.84;62.53
75838;SHT30;64480;52.040;113.502;2023-02-28T10:59:24;-6.87;62.60
75838;SHT30;64480;52.040;113.502;2023-02-28T11:03:01;-6.89;62.28
75838;SHT30;64480;52.040;113.502;2023-02-28T11:06:31;-6.92;61.52
75838;SHT30;64480;52.040;113.502;2023-02-28T11:10:18;-6.96;60.93
75838;SHT30;64480;52.040;113.502;2023-02-28T11:13:53;-7.01;60.56
75838;SHT30;64480;52.040;113.502;2023-02-28T11:18:18;-7.06;60.28
75838;SHT30;64480;52.040;113.502;2023-02-28T11:22:05;-7.16;59.91
75838;SHT30;64480;52.040;113.502;2023-02-28T11:26:05;-7.19;59.84
75838;SHT30;64480;52.040;113.502;2023-02-28T11:30:30;-7.29;58.97
75838;SHT30;64480;52.040;113.502;2023-02-28T11:35:13;-7.31;58.77
75838;SHT30;64480;52.040;113.502;2023-02-28T12:02:33;-7.59;58.73
75838;SHT30;64480;52.040;113.502;2023-02-28T12:06:50;-7.62;58.17
75838;SHT30;64480;52.040;113.502;2023-02-28T12:20:00;-7.78;59.10
75838;SHT30;64480;52.040;113.502;2023-02-28T12:28:14;-7.91;58.45
75838;SHT30;64480;52.040;113.502;2023-02-28T12:32:12;-7.96;58.15
75838;SHT30;64480;52.040;113.502;2023-02-28T12:36:13;-8.05;57.30
75838;SHT30;64480;52.040;113.502;2023-02-28T12:40:05;-8.07;57.63
75838;SHT30;64480;52.040;113.502;2023-02-28T12:44:02;-8.17;56.83
75838;SHT30;64480;52.040;113.502;2023-02-28T12:48:08;-8.24;57.18
75838;SHT30;64480;52.040;113.502;2023-02-28T12:52:07;-8.37;56.55
75838;SHT30;64480;52.040;113.502;2023-02-28T13:11:51;-8.75;55.53
75838;SHT30;64480;52.040;113.502;2023-02-28T13:15:24;-8.85;55.26
75838;SHT30;64480;52.040;113.502;2023-02-28T13:19:10;-8.85;56.23
75838;SHT30;64480;52.040;113.502;2023-02-28T13:22:45;-8.95;56.54
75838;SHT30;64480;52.040;113.502;2023-02-28T13:26:21;-9.06;56.87
75838;SHT30;64480;52.040;113.502;2023-02-28T13:34:22;-9.24;57.70
75838;SHT30;64480;52.040;113.502;2023-02-28T13:38:23;-9.35;57.71
75838;SHT30;64480;52.040;113.502;2023-02-28T13:41:51;-9.47;57.73
75838;SHT30;64480;52.040;113.502;2023-02-28T13:45:31;-9.58;58.00
75838;SHT30;64480;52.040;113.502;2023-02-28T13:53:28;-9.63;57.72
75838;SHT30;64480;52.040;113.502;2023-02-28T13:57:30;-9.73;57.98
75838;SHT30;64480;52.040;113.502;2023-02-28T14:05:24;-9.68;57.24
75838;SHT30;64480;52.040;113.502;2023-02-28T14:09:16;-9.63;57.43
75838;SHT30;64480;52.040;113.502;2023-02-28T14:16:21;-9.68;57.00
75838;SHT30;64480;52.040;113.502;2023-02-28T14:20:00;-9.63;57.04
75838;SHT30;64480;52.040;113.502;2023-02-28T14:31:29;-9.62;55.35
75838;SHT30;64480;52.040;113.502;2023-02-28T14:39:18;-9.82;53.72
75838;SHT30;64480;52.040;113.502;2023-02-28T14:43:50;-9.92;53.08
75838;SHT30;64480;52.040;113.502;2023-02-28T14:47:30;-9.96;53.39
75838;SHT30;64480;52.040;113.502;2023-02-28T14:50:58;-9.95;53.90
75838;SHT30;64480;52.040;113.502;2023-02-28T14:54:38;-9.95;53.97
75838;SHT30;64480;52.040;113.502;2023-02-28T14:58:04;-10.02;53.93
75838;SHT30;64480;52.040;113.502;2023-02-28T15:01:39;-9.99;54.34
75838;SHT30;64480;52.040;113.502;2023-02-28T15:05:18;-10.10;54.44
75838;SHT30;64480;52.040;113.502;2023-02-28T15:08:36;-10.31;55.82
75838;SHT30;64480;52.040;113.502;2023-02-28T15:11:55;-10.45;57.09
75838;SHT30;64480;52.040;113.502;2023-02-28T15:15:19;-10.52;57.40
75838;SHT30;64480;52.040;113.502;2023-02-28T15:18:50;-10.49;57.55
75838;SHT30;64480;52.040;113.502;2023-02-28T15:22:17;-10.40;56.29
75838;SHT30;64480;52.040;113.502;2023-02-28T15:25:41;-10.41;56.52
75838;SHT30;64480;52.040;113.502;2023-02-28T15:29:05;-10.45;56.21
75838;SHT30;64480;52.040;113.502;2023-02-28T15:32:43;-10.56;56.38
75838;SHT30;64480;52.040;113.502;2023-02-28T15:36:11;-10.83;57.42
75838;SHT30;64480;52.040;113.502;2023-02-28T15:39:41;-10.87;57.73
75838;SHT30;64480;52.040;113.502;2023-02-28T15:43:07;-11.14;58.07
75838;SHT30;64480;52.040;113.502;2023-02-28T15:46:35;-11.30;59.09
75838;SHT30;64480;52.040;113.502;2023-02-28T15:50:01;-11.36;59.49
75838;SHT30;64480;52.040;113.502;2023-02-28T15:53:30;-11.20;59.03
75838;SHT30;64480;52.040;113.502;2023-02-28T15:56:52;-10.95;57.96
75838;SHT30;64480;52.040;113.502;2023-02-28T16:00:15;-10.87;56.95
75838;SHT30;64480;52.040;113.502;2023-02-28T16:03:42;-10.82;56.24
75838;SHT30;64480;52.040;113.502;2023-02-28T16:07:12;-10.80;55.91
75838;SHT30;64480;52.040;113.502;2023-02-28T16:10:30;-10.82;55.65
75838;SHT30;64480;52.040;113.502;2023-02-28T16:13:59;-10.80;55.62
75838;SHT30;64480;52.040;113.502;2023-02-28T16:17:27;-10.80;55.72
75838;SHT30;64480;52.040;113.502;2023-02-28T16:20:46;-10.79;55.47
75838;SHT30;64480;52.040;113.502;2023-02-28T16:24:13;-10.77;55.35
75838;SHT30;64480;52.040;113.502;2023-02-28T16:27:36;-10.72;54.90
75838;SHT30;64480;52.040;113.502;2023-02-28T16:30:59;-10.65;54.30
75838;SHT30;64480;52.040;113.502;2023-02-28T16:34:23;-10.65;54.68
75838;SHT30;64480;52.040;113.502;2023-02-28T16:48:45;-11.58;57.04
75838;SHT30;64480;52.040;113.502;2023-02-28T16:52:07;-11.45;56.63
75838;SHT30;64480;52.040;113.502;2023-02-28T16:55:27;-11.32;55.91
75838;SHT30;64480;52.040;113.502;2023-02-28T16:58:44;-11.27;55.66
75838;SHT30;64480;52.040;113.502;2023-02-28T17:02:11;-11.21;55.66
75838;SHT30;64480;52.040;113.502;2023-02-28T17:05:37;-11.21;55.47
75838;SHT30;64480;52.040;113.502;2023-02-28T17:08:57;-11.16;55.24
75838;SHT30;64480;52.040;113.502;2023-02-28T17:12:19;-11.13;55.23
75838;SHT30;64480;52.040;113.502;2023-02-28T17:15:40;-11.14;55.34
75838;SHT30;64480;52.040;113.502;2023-02-28T17:19:01;-11.25;55.64
75838;SHT30;64480;52.040;113.502;2023-02-28T17:22:19;-11.48;56.45
75838;SHT30;64480;52.040;113.502;2023-02-28T17:25:37;-11.61;56.72
75838;SHT30;64480;52.040;113.502;2023-02-28T17:28:57;-11.65;57.61
75838;SHT30;64480;52.040;113.502;2023-02-28T17:32:09;-11.79;57.42
75838;SHT30;64480;52.040;113.502;2023-02-28T17:35:32;-11.84;57.64
75838;SHT30;64480;52.040;113.502;2023-02-28T17:38:52;-11.93;58.06
75838;SHT30;64480;52.040;113.502;2023-02-28T17:42:17;-12.00;58.51
75838;SHT30;64480;52.040;113.502;2023-02-28T17:45:35;-12.02;58.57
75838;SHT30;64480;52.040;113.502;2023-02-28T17:48:55;-12.22;58.80
75838;SHT30;64480;52.040;113.502;2023-02-28T17:52:13;-12.25;59.26
75838;SHT30;64480;52.040;113.502;2023-02-28T17:55:31;-12.28;59.10
75838;SHT30;64480;52.040;113.502;2023-02-28T17:58:53;-12.29;59.16
75838;SHT30;64480;52.040;113.502;2023-02-28T18:02:13;-12.32;59.23
75838;SHT30;64480;52.040;113.502;2023-02-28T18:05:34;-12.39;59.48
75838;SHT30;64480;52.040;113.502;2023-02-28T18:08:53;-12.45;59.36
75838;SHT30;64480;52.040;113.502;2023-02-28T18:12:17;-12.62;59.42
75838;SHT30;64480;52.040;113.502;2023-02-28T18:15:34;-12.73;60.27
75838;SHT30;64480;52.040;113.502;2023-02-28T18:18:51;-12.80;60.34
75838;SHT30;64480;52.040;113.502;2023-02-28T18:21:58;-12.84;60.45
75838;SHT30;64480;52.040;113.502;2023-02-28T18:25:16;-12.85;60.39
75838;SHT30;64480;52.040;113.502;2023-02-28T18:28:36;-12.85;59.89
75838;SHT30;64480;52.040;113.502;2023-02-28T18:31:40;-12.94;59.91
75838;SHT30;64480;52.040;113.502;2023-02-28T18:34:59;-13.02;60.40
75838;SHT30;64480;52.040;113.502;2023-02-28T18:38:17;-13.02;60.76
75838;SHT30;64480;52.040;113.502;2023-02-28T18:41:38;-13.02;60.41
75838;SHT30;64480;52.040;113.502;2023-02-28T18:44:56;-13.10;60.37
75838;SHT30;64480;52.040;113.502;2023-02-28T18:48:02;-13.04;60.55
75838;SHT30;64480;52.040;113.502;2023-02-28T18:51:25;-13.15;60.24
75838;SHT30;64480;52.040;113.502;2023-02-28T18:54:33;-13.29;60.75
75838;SHT30;64480;52.040;113.502;2023-02-28T18:57:55;-13.28;61.07
75838;SHT30;64480;52.040;113.502;2023-02-28T19:01:21;-13.38;60.73
75838;SHT30;64480;52.040;113.502;2023-02-28T19:04:40;-13.39;60.75
75838;SHT30;64480;52.040;113.502;2023-02-28T19:07:46;-13.43;60.92
75838;SHT30;64480;52.040;113.502;2023-02-28T19:10:56;-13.43;61.42
75838;SHT30;64480;52.040;113.502;2023-02-28T19:14:13;-13.39;61.44
75838;SHT30;64480;52.040;113.502;2023-02-28T19:17:34;-13.36;61.52
75838;SHT30;64480;52.040;113.502;2023-02-28T19:20:41;-13.22;61.36
75838;SHT30;64480;52.040;113.502;2023-02-28T19:24:01;-13.33;61.33
75838;SHT30;64480;52.040;113.502;2023-02-28T19:27:18;-13.21;61.70
75838;SHT30;64480;52.040;113.502;2023-02-28T19:30:36;-13.28;61.31
75838;SHT30;64480;52.040;113.502;2023-02-28T19:33:53;-13.35;61.45
75838;SHT30;64480;52.040;113.502;2023-02-28T19:37:01;-13.42;61.36
75838;SHT30;64480;52.040;113.502;2023-02-28T19:40:18;-13.43;61.33
75838;SHT30;64480;52.040;113.502;2023-02-28T19:43:36;-13.54;61.35
75838;SHT30;64480;52.040;113.502;2023-02-28T19:46:53;-13.60;61.19
75838;SHT30;64480;52.040;113.502;2023-02-28T19:50:13;-13.63;61.54
75838;SHT30;64480;52.040;113.502;2023-02-28T19:53:34;-13.60;61.50
75838;SHT30;64480;52.040;113.502;2023-02-28T19:56:52;-13.56;61.40
75838;SHT30;64480;52.040;113.502;2023-02-28T20:00:22;-13.57;61.01
75838;SHT30;64480;52.040;113.502;2023-02-28T20:03:41;-13.67;61.33
75838;SHT30;64480;52.040;113.502;2023-02-28T20:07:07;-13.66;61.67
75838;SHT30;64480;52.040;113.502;2023-02-28T20:10:25;-13.63;61.43
75838;SHT30;64480;52.040;113.502;2023-02-28T20:13:44;-13.63;61.55
75838;SHT30;64480;52.040;113.502;2023-02-28T20:17:01;-13.64;61.42
75838;SHT30;64480;52.040;113.502;2023-02-28T20:20:18;-13.71;61.56
75838;SHT30;64480;52.040;113.502;2023-02-28T20:23:40;-13.74;61.30
75838;SHT30;64480;52.040;113.502;2023-02-28T20:27:04;-13.75;61.60
75838;SHT30;64480;52.040;113.502;2023-02-28T20:30:21;-13.77;61.81
75838;SHT30;64480;52.040;113.502;2023-02-28T20:33:41;-13.77;61.83
75838;SHT30;64480;52.040;113.502;2023-02-28T20:36:59;-13.71;61.86
75838;SHT30;64480;52.040;113.502;2023-02-28T20:40:16;-13.68;61.67
75838;SHT30;64480;52.040;113.502;2023-02-28T20:43:34;-13.66;61.66
75838;SHT30;64480;52.040;113.502;2023-02-28T20:46:53;-13.66;61.34
75838;SHT30;64480;52.040;113.502;2023-02-28T20:50:16;-13.66;60.99
75838;SHT30;64480;52.040;113.502;2023-02-28T20:53:34;-13.59;60.89
75838;SHT30;64480;52.040;113.502;2023-02-28T20:56:52;-13.64;60.66
75838;SHT30;64480;52.040;113.502;2023-02-28T21:00:18;-13.67;60.57
75838;SHT30;64480;52.040;113.502;2023-02-28T21:03:39;-13.63;60.99
75838;SHT30;64480;52.040;113.502;2023-02-28T21:06:47;-13.74;60.68
75838;SHT30;64480;52.040;113.502;2023-02-28T21:10:07;-13.77;60.60
75838;SHT30;64480;52.040;113.502;2023-02-28T21:13:23;-13.78;61.13
75838;SHT30;64480;52.040;113.502;2023-02-28T21:16:42;-13.75;61.57
75838;SHT30;64480;52.040;113.502;2023-02-28T21:20:02;-13.79;61.34
75838;SHT30;64480;52.040;113.502;2023-02-28T21:23:20;-13.78;62.01
75838;SHT30;64480;52.040;113.502;2023-02-28T21:26:39;-13.77;61.45
75838;SHT30;64480;52.040;113.502;2023-02-28T21:29:49;-13.85;61.43
75838;SHT30;64480;52.040;113.502;2023-02-28T21:33:12;-13.92;61.54
75838;SHT30;64480;52.040;113.502;2023-02-28T21:36:57;-13.89;61.71
75838;SHT30;64480;52.040;113.502;2023-02-28T21:40:14;-13.87;61.61
75838;SHT30;64480;52.040;113.502;2023-02-28T21:43:21;-13.82;61.65
75838;SHT30;64480;52.040;113.502;2023-02-28T21:46:38;-13.84;61.17
75838;SHT30;64480;52.040;113.502;2023-02-28T21:49:57;-13.89;61.42
75838;SHT30;64480;52.040;113.502;2023-02-28T21:53:20;-13.94;61.31
75838;SHT30;64480;52.040;113.502;2023-02-28T21:56:38;-14.01;61.39
75838;SHT30;64480;52.040;113.502;2023-02-28T21:59:55;-14.06;61.54
75838;SHT30;64480;52.040;113.502;2023-02-28T22:03:14;-14.02;61.76
75838;SHT30;64480;52.040;113.502;2023-02-28T22:06:37;-14.04;61.61
75838;SHT30;64480;52.040;113.502;2023-02-28T22:09:57;-14.02;61.90
75838;SHT30;64480;52.040;113.502;2023-02-28T22:13:38;-14.04;61.75
75838;SHT30;64480;52.040;113.502;2023-02-28T22:16:58;-14.04;61.81
75838;SHT30;64480;52.040;113.502;2023-02-28T22:20:14;-13.98;62.13
75838;SHT30;64480;52.040;113.502;2023-02-28T22:23:36;-13.85;61.58
75838;SHT30;64480;52.040;113.502;2023-02-28T22:26:54;-13.89;61.08
75838;SHT30;64480;52.040;113.502;2023-02-28T22:30:17;-13.89;60.80
75838;SHT30;64480;52.040;113.502;2023-02-28T22:33:35;-13.98;59.99
75838;SHT30;64480;52.040;113.502;2023-02-28T22:36:53;-14.06;60.38
75838;SHT30;64480;52.040;113.502;2023-02-28T22:40:10;-14.11;60.70
75838;SHT30;64480;52.040;113.502;2023-02-28T22:43:28;-14.09;60.27
75838;SHT30;64480;52.040;113.502;2023-02-28T22:46:51;-14.19;60.24
75838;SHT30;64480;52.040;113.502;2023-02-28T22:50:05;-14.19;60.42
75838;SHT30;64480;52.040;113.502;2023-02-28T22:53:25;-14.34;59.87
75838;SHT30;64480;52.040;113.502;2023-02-28T22:56:43;-14.36;60.46
75838;SHT30;64480;52.040;113.502;2023-02-28T23:00:08;-14.56;59.93
75838;SHT30;64480;52.040;113.502;2023-02-28T23:03:40;-14.57;60.92
75838;SHT30;64480;52.040;113.502;2023-02-28T23:06:58;-14.53;60.73
75838;SHT30;64480;52.040;113.502;2023-02-28T23:10:23;-14.51;60.76
75838;SHT30;64480;52.040;113.502;2023-02-28T23:13:43;-14.50;59.93
75838;SHT30;64480;52.040;113.502;2023-02-28T23:17:13;-14.43;60.29
75838;SHT30;64480;52.040;113.502;2023-02-28T23:20:33;-14.36;59.83
75838;SHT30;64480;52.040;113.502;2023-02-28T23:23:57;-14.32;59.47
75838;SHT30;64480;52.040;113.502;2023-02-28T23:27:35;-14.40;58.77
75838;SHT30;64480;52.040;113.502;2023-02-28T23:31:02;-14.36;59.24
75838;SHT30;64480;52.040;113.502;2023-02-28T23:34:22;-14.32;58.94
75838;SHT30;64480;52.040;113.502;2023-02-28T23:37:43;-14.47;58.28
75838;SHT30;64480;52.040;113.502;2023-02-28T23:41:07;-14.53;58.10
75838;SHT30;64480;52.040;113.502;2023-02-28T23:44:28;-14.59;57.78
75838;SHT30;64480;52.040;113.502;2023-02-28T23:47:47;-14.59;57.80
75838;SHT30;64480;52.040;113.502;2023-02-28T23:51:10;-13.67;58.22
75838;SHT30;64480;52.040;113.502;2023-02-28T23:54:18;-12.38;53.38
75838;SHT30;64480;52.040;113.502;2023-02-28T23:57:38;-11.61;49.84
